sensor_id;sensor_type;location;lat;lon;timestamp;P1;durP1;ratioP1;P2;durP2;ratioP2
19205;SDS011;59358;52.134;5.596;2023-03-23T00:01:29;11.32;;;6.35;;
19205;SDS011;59358;52.134;5.596;2023-03-23T00:03:57;9.98;;;6.55;;
19205;SDS011;59358;52.134;5.596;2023-03-23T00:06:26;12.32;;;6.28;;
19205;SDS011;59358;52.134;5.596;2023-03-23T00:08:58;11.65;;;6.82;;
19205;SDS011;59358;52.134;5.596;2023-03-23T00:11:29;14.13;;;6.75;;
19205;SDS011;59358;52.134;5.596;2023-03-23T00:13:59;12.43;;;6.93;;
19205;SDS011;59358;52.134;5.596;2023-03-23T00:16:27;11.20;;;6.07;;
19205;SDS011;59358;52.134;5.596;2023-03-23T00:18:57;12.88;;;6.47;;
19205;SDS011;59358;52.134;5.596;2023-03-23T00:21:25;9.75;;;6.25;;
19205;SDS011;59358;52.134;5.596;2023-03-23T00:24:00;12.80;;;6.32;;
19205;SDS011;59358;52.134;5.596;2023-03-23T00:26:28;13.93;;;6.47;;
19205;SDS011;59358;52.134;5.596;2023-03-23T00:29:00;11.43;;;6.38;;
19205;SDS011;59358;52.134;5.596;2023-03-23T00:31:28;12.02;;;6.10;;
19205;SDS011;59358;52.134;5.596;2023-03-23T00:33:56;10.98;;;5.45;;
19205;SDS011;59358;52.134;5.596;2023-03-23T00:36:26;7.93;;;5.32;;
19205;SDS011;59358;52.134;5.596;2023-03-23T00:38:53;11.77;;;5.57;;
19205;SDS011;59358;52.134;5.596;2023-03-23T00:41:22;10.98;;;5.97;;
19205;SDS011;59358;52.134;5.596;2023-03-23T00:43:51;8.10;;;5.75;;
19205;SDS011;59358;52.134;5.596;2023-03-23T00:46:20;7.55;;;5.43;;
19205;SDS011;59358;52.134;5.596;2023-03-23T00:48:47;9.55;;;5.53;;
19205;SDS011;59358;52.134;5.596;2023-03-23T00:51:15;9.35;;;5.72;;
19205;SDS011;59358;52.134;5.596;2023-03-23T00:53:42;7.75;;;5.05;;
19205;SDS011;59358;52.134;5.596;2023-03-23T00:56:10;6.57;;;5.20;;
19205;SDS011;59358;52.134;5.596;2023-03-23T00:58:37;12.57;;;4.70;;
19205;SDS011;59358;52.134;5.596;2023-03-23T01:01:05;14.27;;;4.65;;
19205;SDS011;59358;52.134;5.596;2023-03-23T01:03:33;8.27;;;4.72;;
19205;SDS011;59358;52.134;5.596;2023-03-23T01:06:03;8.38;;;4.78;;
19205;SDS011;59358;52.134;5.596;2023-03-23T01:08:33;10.43;;;4.90;;
19205;SDS011;59358;52.134;5.596;2023-03-23T01:11:03;8.98;;;5.05;;
19205;SDS011;59358;52.134;5.596;2023-03-23T01:13:31;8.93;;;4.70;;
19205;SDS011;59358;52.134;5.596;2023-03-23T01:15:58;10.98;;;4.90;;
19205;SDS011;59358;52.134;5.596;2023-03-23T01:18:25;5.95;;;4.40;;
19205;SDS011;59358;52.134;5.596;2023-03-23T01:20:53;7.53;;;4.30;;
19205;SDS011;59358;52.134;5.596;2023-03-23T01:23:20;10.32;;;4.80;;
19205;SDS011;59358;52.134;5.596;2023-03-23T01:25:48;7.65;;;4.32;;
19205;SDS011;59358;52.134;5.596;2023-03-23T01:28:14;6.63;;;3.90;;
19205;SDS011;59358;52.134;5.596;2023-03-23T01:30:41;8.95;;;4.00;;
19205;SDS011;59358;52.134;5.596;2023-03-23T01:33:08;7.00;;;3.50;;
19205;SDS011;59358;52.134;5.596;2023-03-23T01:35:37;7.43;;;3.75;;
19205;SDS011;59358;52.134;5.596;2023-03-23T01:38:05;6.63;;;4.00;;
19205;SDS011;59358;52.134;5.596;2023-03-23T01:40:32;5.82;;;3.85;;
19205;SDS011;59358;52.134;5.596;2023-03-23T01:42:59;5.22;;;3.38;;
19205;SDS011;59358;52.134;5.596;2023-03-23T01:45:32;8.05;;;3.90;;
19205;SDS011;59358;52.134;5.596;2023-03-23T01:48:05;6.63;;;4.00;;
19205;SDS011;59358;52.134;5.596;2023-03-23T01:50:38;8.93;;;4.18;;
19205;SDS011;59358;52.134;5.596;2023-03-23T01:53:12;6.03;;;3.65;;
19205;SDS011;59358;52.134;5.596;2023-03-23T01:55:40;5.95;;;4.03;;
19205;SDS011;59358;52.134;5.596;2023-03-23T01:58:13;6.63;;;3.97;;
19205;SDS011;59358;52.134;5.596;2023-03-23T02:00:42;6.82;;;4.22;;
19205;SDS011;59358;52.134;5.596;2023-03-23T02:03:09;5.75;;;3.90;;
19205;SDS011;59358;52.134;5.596;2023-03-23T02:05:41;9.40;;;4.45;;
19205;SDS011;59358;52.134;5.596;2023-03-23T02:08:08;10.68;;;4.53;;
19205;SDS011;59358;52.134;5.596;2023-03-23T02:10:40;4.78;;;3.90;;
19205;SDS011;59358;52.134;5.596;2023-03-23T02:13:07;5.65;;;4.72;;
19205;SDS011;59358;52.134;5.596;2023-03-23T02:15:40;7.10;;;4.50;;
19205;SDS011;59358;52.134;5.596;2023-03-23T02:18:29;6.95;;;4.45;;
19205;SDS011;59358;52.134;5.596;2023-03-23T02:24:32;8.75;;;4.47;;
19205;SDS011;59358;52.134;5.596;2023-03-23T02:27:14;8.70;;;4.63;;
19205;SDS011;59358;52.134;5.596;2023-03-23T02:29:48;6.45;;;4.40;;
19205;SDS011;59358;52.134;5.596;2023-03-23T02:32:33;8.82;;;4.57;;
19205;SDS011;59358;52.134;5.596;2023-03-23T02:35:16;8.38;;;5.00;;
19205;SDS011;59358;52.134;5.596;2023-03-23T02:37:47;9.27;;;4.22;;
19205;SDS011;59358;52.134;5.596;2023-03-23T02:40:18;7.85;;;4.80;;
19205;SDS011;59358;52.134;5.596;2023-03-23T02:42:49;7.57;;;4.60;;
19205;SDS011;59358;52.134;5.596;2023-03-23T02:45:17;6.75;;;5.00;;
19205;SDS011;59358;52.134;5.596;2023-03-23T02:47:46;6.32;;;4.63;;
19205;SDS011;59358;52.134;5.596;2023-03-23T02:50:19;7.00;;;5.35;;
19205;SDS011;59358;52.134;5.596;2023-03-23T02:52:48;6.47;;;5.05;;
19205;SDS011;59358;52.134;5.596;2023-03-23T02:55:16;8.13;;;4.90;;
19205;SDS011;59358;52.134;5.596;2023-03-23T02:57:45;6.43;;;4.93;;
19205;SDS011;59358;52.134;5.596;2023-03-23T03:00:14;9.05;;;5.22;;
19205;SDS011;59358;52.134;5.596;2023-03-23T03:02:44;7.38;;;5.28;;
19205;SDS011;59358;52.134;5.596;2023-03-23T03:05:20;8.23;;;4.88;;
19205;SDS011;59358;52.134;5.596;2023-03-23T03:08:01;8.90;;;5.20;;
19205;SDS011;59358;52.134;5.596;2023-03-23T03:10:40;6.75;;;4.97;;
19205;SDS011;59358;52.134;5.596;2023-03-23T03:13:13;6.38;;;5.15;;
19205;SDS011;59358;52.134;5.596;2023-03-23T03:15:48;7.40;;;4.88;;
19205;SDS011;59358;52.134;5.596;2023-03-23T03:18:22;8.52;;;5.10;;
19205;SDS011;59358;52.134;5.596;2023-03-23T03:20:55;9.23;;;5.00;;
19205;SDS011;59358;52.134;5.596;2023-03-23T03:23:26;7.80;;;5.47;;
19205;SDS011;59358;52.134;5.596;2023-03-23T03:25:54;7.05;;;4.72;;
19205;SDS011;59358;52.134;5.596;2023-03-23T03:28:22;9.55;;;4.82;;
19205;SDS011;59358;52.134;5.596;2023-03-23T03:30:52;9.82;;;5.88;;
19205;SDS011;59358;52.134;5.596;2023-03-23T03:33:21;12.25;;;5.05;;
19205;SDS011;59358;52.134;5.596;2023-03-23T03:35:50;6.03;;;4.38;;
19205;SDS011;59358;52.134;5.596;2023-03-23T03:38:19;11.32;;;4.50;;
19205;SDS011;59358;52.134;5.596;2023-03-23T03:40:46;7.15;;;4.45;;
19205;SDS011;59358;52.134;5.596;2023-03-23T03:43:13;5.82;;;4.05;;
19205;SDS011;59358;52.134;5.596;2023-03-23T03:45:40;10.38;;;4.35;;
19205;SDS011;59358;52.134;5.596;2023-03-23T03:48:07;8.77;;;3.72;;
19205;SDS011;59358;52.134;5.596;2023-03-23T03:50:34;10.77;;;4.35;;
19205;SDS011;59358;52.134;5.596;2023-03-23T03:53:00;7.43;;;3.95;;
19205;SDS011;59358;52.134;5.596;2023-03-23T03:55:29;7.35;;;4.30;;
19205;SDS011;59358;52.134;5.596;2023-03-23T03:58:00;10.75;;;4.07;;
19205;SDS011;59358;52.134;5.596;2023-03-23T04:00:27;8.50;;;4.18;;
19205;SDS011;59358;52.134;5.596;2023-03-23T04:02:54;7.97;;;4.15;;
19205;SDS011;59358;52.134;5.596;2023-03-23T04:05:21;8.25;;;4.28;;
19205;SDS011;59358;52.134;5.596;2023-03-23T04:07:49;7.95;;;4.25;;
19205;SDS011;59358;52.134;5.596;2023-03-23T04:10:17;7.85;;;4.22;;
19205;SDS011;59358;52.134;5.596;2023-03-23T04:12:47;6.53;;;3.85;;
19205;SDS011;59358;52.134;5.596;2023-03-23T04:15:15;9.05;;;4.35;;
19205;SDS011;59358;52.134;5.596;2023-03-23T04:17:42;7.05;;;4.10;;
19205;SDS011;59358;52.134;5.596;2023-03-23T04:20:09;7.47;;;4.25;;
19205;SDS011;59358;52.134;5.596;2023-03-23T04:22:42;7.80;;;4.13;;
19205;SDS011;59358;52.134;5.596;2023-03-23T04:25:11;11.02;;;3.92;;
19205;SDS011;59358;52.134;5.596;2023-03-23T04:27:39;5.63;;;3.50;;
19205;SDS011;59358;52.134;5.596;2023-03-23T04:30:10;5.53;;;3.88;;
19205;SDS011;59358;52.134;5.596;2023-03-23T04:32:38;6.93;;;3.72;;
19205;SDS011;59358;52.134;5.596;2023-03-23T04:35:07;8.38;;;3.05;;
19205;SDS011;59358;52.134;5.596;2023-03-23T04:37:36;6.18;;;4.07;;
19205;SDS011;59358;52.134;5.596;2023-03-23T04:40:04;4.95;;;3.33;;
19205;SDS011;59358;52.134;5.596;2023-03-23T04:42:36;6.00;;;3.17;;
19205;SDS011;59358;52.134;5.596;2023-03-23T04:45:04;5.57;;;3.15;;
19205;SDS011;59358;52.134;5.596;2023-03-23T04:47:34;7.43;;;3.25;;
19205;SDS011;59358;52.134;5.596;2023-03-23T04:50:05;6.38;;;3.30;;
19205;SDS011;59358;52.134;5.596;2023-03-23T04:52:33;8.35;;;3.10;;
19205;SDS011;59358;52.134;5.596;2023-03-23T04:55:02;9.00;;;3.28;;
19205;SDS011;59358;52.134;5.596;2023-03-23T04:57:30;7.00;;;3.10;;
19205;SDS011;59358;52.134;5.596;2023-03-23T04:59:58;6.70;;;2.42;;
19205;SDS011;59358;52.134;5.596;2023-03-23T05:02:25;6.80;;;2.42;;
19205;SDS011;59358;52.134;5.596;2023-03-23T05:04:56;9.77;;;2.95;;
19205;SDS011;59358;52.134;5.596;2023-03-23T05:07:24;9.68;;;3.30;;
19205;SDS011;59358;52.134;5.596;2023-03-23T05:09:51;6.32;;;2.40;;
19205;SDS011;59358;52.134;5.596;2023-03-23T05:12:18;10.48;;;2.63;;
19205;SDS011;59358;52.134;5.596;2023-03-23T05:14:45;5.43;;;2.75;;
19205;SDS011;59358;52.134;5.596;2023-03-23T05:17:11;7.40;;;2.42;;
19205;SDS011;59358;52.134;5.596;2023-03-23T05:19:41;6.30;;;2.05;;
19205;SDS011;59358;52.134;5.596;2023-03-23T05:22:11;11.73;;;3.47;;
19205;SDS011;59358;52.134;5.596;2023-03-23T05:24:39;8.55;;;2.33;;
19205;SDS011;59358;52.134;5.596;2023-03-23T05:27:07;6.95;;;2.50;;
19205;SDS011;59358;52.134;5.596;2023-03-23T05:29:34;10.65;;;2.83;;
19205;SDS011;59358;52.134;5.596;2023-03-23T05:32:02;12.50;;;3.00;;
19205;SDS011;59358;52.134;5.596;2023-03-23T05:34:30;8.45;;;2.40;;
19205;SDS011;59358;52.134;5.596;2023-03-23T05:36:58;7.50;;;2.95;;
19205;SDS011;59358;52.134;5.596;2023-03-23T05:39:27;13.20;;;3.10;;
19205;SDS011;59358;52.134;5.596;2023-03-23T05:41:57;11.15;;;2.60;;
19205;SDS011;59358;52.134;5.596;2023-03-23T05:44:24;10.43;;;3.30;;
19205;SDS011;59358;52.134;5.596;2023-03-23T05:46:51;16.20;;;3.35;;
19205;SDS011;59358;52.134;5.596;2023-03-23T05:49:18;13.30;;;3.00;;
19205;SDS011;59358;52.134;5.596;2023-03-23T05:51:45;8.90;;;2.38;;
19205;SDS011;59358;52.134;5.596;2023-03-23T05:54:14;12.55;;;3.17;;
19205;SDS011;59358;52.134;5.596;2023-03-23T05:56:43;9.40;;;3.15;;
19205;SDS011;59358;52.134;5.596;2023-03-23T05:59:10;12.95;;;2.65;;
19205;SDS011;59358;52.134;5.596;2023-03-23T06:01:37;8.18;;;2.42;;
19205;SDS011;59358;52.134;5.596;2023-03-23T06:04:04;9.02;;;3.20;;
19205;SDS011;59358;52.134;5.596;2023-03-23T06:06:31;8.52;;;2.38;;
19205;SDS011;59358;52.134;5.596;2023-03-23T06:08:58;7.55;;;2.88;;
19205;SDS011;59358;52.134;5.596;2023-03-23T06:11:25;9.85;;;2.72;;
19205;SDS011;59358;52.134;5.596;2023-03-23T06:13:54;12.23;;;2.75;;
19205;SDS011;59358;52.134;5.596;2023-03-23T06:16:21;12.32;;;3.30;;
19205;SDS011;59358;52.134;5.596;2023-03-23T06:18:49;13.25;;;3.33;;
19205;SDS011;59358;52.134;5.596;2023-03-23T06:21:16;16.90;;;3.40;;
19205;SDS011;59358;52.134;5.596;2023-03-23T06:23:44;14.50;;;3.92;;
19205;SDS011;59358;52.134;5.596;2023-03-23T06:26:11;13.93;;;4.40;;
19205;SDS011;59358;52.134;5.596;2023-03-23T06:28:41;17.67;;;5.20;;
19205;SDS011;59358;52.134;5.596;2023-03-23T06:31:10;14.85;;;4.82;;
19205;SDS011;59358;52.134;5.596;2023-03-23T06:33:39;18.90;;;6.18;;
19205;SDS011;59358;52.134;5.596;2023-03-23T06:36:06;20.00;;;4.53;;
19205;SDS011;59358;52.134;5.596;2023-03-23T06:38:36;10.52;;;4.13;;
19205;SDS011;59358;52.134;5.596;2023-03-23T06:41:03;13.70;;;4.80;;
19205;SDS011;59358;52.134;5.596;2023-03-23T06:43:30;13.43;;;4.65;;
19205;SDS011;59358;52.134;5.596;2023-03-23T06:45:58;13.93;;;4.70;;
19205;SDS011;59358;52.134;5.596;2023-03-23T06:48:27;19.73;;;4.75;;
19205;SDS011;59358;52.134;5.596;2023-03-23T06:50:53;15.05;;;4.97;;
19205;SDS011;59358;52.134;5.596;2023-03-23T06:53:20;15.65;;;4.55;;
19205;SDS011;59358;52.134;5.596;2023-03-23T06:55:47;16.05;;;4.25;;
19205;SDS011;59358;52.134;5.596;2023-03-23T06:58:14;17.05;;;4.75;;
19205;SDS011;59358;52.134;5.596;2023-03-23T07:00:41;13.80;;;4.72;;
19205;SDS011;59358;52.134;5.596;2023-03-23T07:03:08;13.15;;;3.42;;
19205;SDS011;59358;52.134;5.596;2023-03-23T07:05:36;10.02;;;3.70;;
19205;SDS011;59358;52.134;5.596;2023-03-23T07:08:03;11.13;;;3.03;;
19205;SDS011;59358;52.134;5.596;2023-03-23T07:10:30;9.85;;;4.30;;
19205;SDS011;59358;52.134;5.596;2023-03-23T07:12:58;15.15;;;3.25;;
19205;SDS011;59358;52.134;5.596;2023-03-23T07:15:25;8.75;;;3.50;;
19205;SDS011;59358;52.134;5.596;2023-03-23T07:17:52;10.15;;;3.65;;
19205;SDS011;59358;52.134;5.596;2023-03-23T07:20:20;16.30;;;3.35;;
19205;SDS011;59358;52.134;5.596;2023-03-23T07:22:48;12.77;;;3.47;;
19205;SDS011;59358;52.134;5.596;2023-03-23T07:25:15;11.13;;;3.95;;
19205;SDS011;59358;52.134;5.596;2023-03-23T07:27:44;14.40;;;3.30;;
19205;SDS011;59358;52.134;5.596;2023-03-23T07:30:12;11.98;;;3.40;;
19205;SDS011;59358;52.134;5.596;2023-03-23T07:32:39;10.82;;;3.60;;
19205;SDS011;59358;52.134;5.596;2023-03-23T07:35:07;8.48;;;3.30;;
19205;SDS011;59358;52.134;5.596;2023-03-23T07:37:35;12.13;;;3.22;;
19205;SDS011;59358;52.134;5.596;2023-03-23T07:40:03;12.07;;;2.58;;
19205;SDS011;59358;52.134;5.596;2023-03-23T07:42:39;12.57;;;2.40;;
19205;SDS011;59358;52.134;5.596;2023-03-23T07:45:07;11.80;;;2.47;;
19205;SDS011;59358;52.134;5.596;2023-03-23T07:47:34;8.45;;;2.85;;
19205;SDS011;59358;52.134;5.596;2023-03-23T07:50:01;10.07;;;3.38;;
19205;SDS011;59358;52.134;5.596;2023-03-23T07:52:28;13.52;;;3.00;;
19205;SDS011;59358;52.134;5.596;2023-03-23T07:54:56;9.65;;;3.25;;
19205;SDS011;59358;52.134;5.596;2023-03-23T07:57:24;12.82;;;3.33;;
19205;SDS011;59358;52.134;5.596;2023-03-23T07:59:51;8.98;;;2.85;;
19205;SDS011;59358;52.134;5.596;2023-03-23T08:02:18;10.75;;;3.35;;
19205;SDS011;59358;52.134;5.596;2023-03-23T08:04:44;12.75;;;2.92;;
19205;SDS011;59358;52.134;5.596;2023-03-23T08:07:12;10.82;;;2.95;;
19205;SDS011;59358;52.134;5.596;2023-03-23T08:09:41;8.40;;;2.60;;
19205;SDS011;59358;52.134;5.596;2023-03-23T08:12:08;10.65;;;3.15;;
19205;SDS011;59358;52.134;5.596;2023-03-23T08:14:36;9.07;;;3.80;;
19205;SDS011;59358;52.134;5.596;2023-03-23T08:17:03;10.55;;;3.95;;
19205;SDS011;59358;52.134;5.596;2023-03-23T08:19:30;14.18;;;3.60;;
19205;SDS011;59358;52.134;5.596;2023-03-23T08:22:01;13.15;;;3.75;;
19205;SDS011;59358;52.134;5.596;2023-03-23T08:24:28;13.13;;;3.35;;
19205;SDS011;59358;52.134;5.596;2023-03-23T08:26:55;6.85;;;3.08;;
19205;SDS011;59358;52.134;5.596;2023-03-23T08:29:22;7.97;;;3.72;;
19205;SDS011;59358;52.134;5.596;2023-03-23T08:31:51;11.73;;;3.20;;
19205;SDS011;59358;52.134;5.596;2023-03-23T08:34:18;8.35;;;3.28;;
19205;SDS011;59358;52.134;5.596;2023-03-23T08:36:45;8.18;;;3.40;;
19205;SDS011;59358;52.134;5.596;2023-03-23T08:39:12;11.43;;;3.28;;
19205;SDS011;59358;52.134;5.596;2023-03-23T08:41:39;12.68;;;3.45;;
19205;SDS011;59358;52.134;5.596;2023-03-23T08:44:07;7.55;;;2.67;;
19205;SDS011;59358;52.134;5.596;2023-03-23T08:46:34;10.20;;;3.25;;
19205;SDS011;59358;52.134;5.596;2023-03-23T08:49:02;11.05;;;3.00;;
19205;SDS011;59358;52.134;5.596;2023-03-23T08:51:30;6.80;;;3.10;;
19205;SDS011;59358;52.134;5.596;2023-03-23T08:53:57;8.93;;;3.05;;
19205;SDS011;59358;52.134;5.596;2023-03-23T08:56:25;8.75;;;3.22;;
19205;SDS011;59358;52.134;5.596;2023-03-23T08:58:52;6.97;;;2.70;;
19205;SDS011;59358;52.134;5.596;2023-03-23T09:01:19;8.20;;;3.20;;
19205;SDS011;59358;52.134;5.596;2023-03-23T09:03:47;13.95;;;3.08;;
19205;SDS011;59358;52.134;5.596;2023-03-23T09:06:15;8.63;;;2.85;;
19205;SDS011;59358;52.134;5.596;2023-03-23T09:08:42;11.48;;;3.22;;
19205;SDS011;59358;52.134;5.596;2023-03-23T09:11:10;8.57;;;2.88;;
19205;SDS011;59358;52.134;5.596;2023-03-23T09:13:37;7.85;;;2.90;;
19205;SDS011;59358;52.134;5.596;2023-03-23T09:16:05;9.18;;;2.97;;
19205;SDS011;59358;52.134;5.596;2023-03-23T09:18:33;8.63;;;3.13;;
19205;SDS011;59358;52.134;5.596;2023-03-23T09:21:01;11.55;;;3.33;;
19205;SDS011;59358;52.134;5.596;2023-03-23T09:23:30;7.53;;;3.25;;
19205;SDS011;59358;52.134;5.596;2023-03-23T09:25:57;9.57;;;3.13;;
19205;SDS011;59358;52.134;5.596;2023-03-23T09:28:26;13.95;;;3.22;;
19205;SDS011;59358;52.134;5.596;2023-03-23T09:30:54;9.88;;;3.08;;
19205;SDS011;59358;52.134;5.596;2023-03-23T09:33:22;7.90;;;2.78;;
19205;SDS011;59358;52.134;5.596;2023-03-23T09:35:49;13.35;;;3.05;;
19205;SDS011;59358;52.134;5.596;2023-03-23T09:38:17;15.95;;;4.10;;
19205;SDS011;59358;52.134;5.596;2023-03-23T09:40:46;13.05;;;3.22;;
19205;SDS011;59358;52.134;5.596;2023-03-23T09:43:20;8.32;;;2.85;;
19205;SDS011;59358;52.134;5.596;2023-03-23T09:46:01;7.93;;;2.80;;
19205;SDS011;59358;52.134;5.596;2023-03-23T09:48:42;8.07;;;2.67;;
19205;SDS011;59358;52.134;5.596;2023-03-23T09:51:17;11.02;;;3.35;;
19205;SDS011;59358;52.134;5.596;2023-03-23T09:53:54;10.25;;;2.67;;
19205;SDS011;59358;52.134;5.596;2023-03-23T09:56:39;9.93;;;3.47;;
19205;SDS011;59358;52.134;5.596;2023-03-23T09:59:09;11.27;;;3.15;;
19205;SDS011;59358;52.134;5.596;2023-03-23T10:01:40;11.63;;;3.10;;
19205;SDS011;59358;52.134;5.596;2023-03-23T10:04:12;12.25;;;3.08;;
19205;SDS011;59358;52.134;5.596;2023-03-23T10:06:43;10.93;;;2.88;;
19205;SDS011;59358;52.134;5.596;2023-03-23T10:09:14;9.80;;;3.42;;
19205;SDS011;59358;52.134;5.596;2023-03-23T10:11:49;16.45;;;3.38;;
19205;SDS011;59358;52.134;5.596;2023-03-23T10:14:25;12.75;;;2.95;;
19205;SDS011;59358;52.134;5.596;2023-03-23T10:17:03;12.00;;;3.53;;
19205;SDS011;59358;52.134;5.596;2023-03-23T10:19:40;9.30;;;2.92;;
19205;SDS011;59358;52.134;5.596;2023-03-23T10:22:12;13.70;;;3.00;;
19205;SDS011;59358;52.134;5.596;2023-03-23T10:24:46;17.73;;;2.80;;
19205;SDS011;59358;52.134;5.596;2023-03-23T10:27:22;11.50;;;2.75;;
19205;SDS011;59358;52.134;5.596;2023-03-23T10:29:55;11.13;;;2.72;;
19205;SDS011;59358;52.134;5.596;2023-03-23T10:32:39;11.60;;;2.80;;
19205;SDS011;59358;52.134;5.596;2023-03-23T10:35:11;11.82;;;2.95;;
19205;SDS011;59358;52.134;5.596;2023-03-23T10:37:42;8.90;;;2.47;;
19205;SDS011;59358;52.134;5.596;2023-03-23T10:40:13;8.07;;;2.40;;
19205;SDS011;59358;52.134;5.596;2023-03-23T10:42:43;14.45;;;3.13;;
19205;SDS011;59358;52.134;5.596;2023-03-23T10:45:13;10.13;;;3.10;;
19205;SDS011;59358;52.134;5.596;2023-03-23T10:47:45;10.20;;;2.72;;
19205;SDS011;59358;52.134;5.596;2023-03-23T10:50:15;14.25;;;2.63;;
19205;SDS011;59358;52.134;5.596;2023-03-23T10:52:44;10.65;;;3.00;;
19205;SDS011;59358;52.134;5.596;2023-03-23T10:55:13;12.70;;;3.35;;
19205;SDS011;59358;52.134;5.596;2023-03-23T10:57:41;13.45;;;3.17;;
19205;SDS011;59358;52.134;5.596;2023-03-23T11:00:17;11.55;;;2.72;;
19205;SDS011;59358;52.134;5.596;2023-03-23T11:02:47;15.30;;;3.42;;
19205;SDS011;59358;52.134;5.596;2023-03-23T11:05:25;11.85;;;2.97;;
19205;SDS011;59358;52.134;5.596;2023-03-23T11:07:59;14.63;;;2.92;;
19205;SDS011;59358;52.134;5.596;2023-03-23T11:10:28;10.05;;;2.67;;
19205;SDS011;59358;52.134;5.596;2023-03-23T11:13:02;11.55;;;3.10;;
19205;SDS011;59358;52.134;5.596;2023-03-23T11:15:34;11.18;;;2.92;;
19205;SDS011;59358;52.134;5.596;2023-03-23T11:18:05;9.20;;;2.40;;
19205;SDS011;59358;52.134;5.596;2023-03-23T11:20:35;11.10;;;3.00;;
19205;SDS011;59358;52.134;5.596;2023-03-23T11:23:08;17.35;;;2.60;;
19205;SDS011;59358;52.134;5.596;2023-03-23T11:25:53;10.60;;;3.00;;
19205;SDS011;59358;52.134;5.596;2023-03-23T11:28:27;10.60;;;3.13;;
19205;SDS011;59358;52.134;5.596;2023-03-23T11:30:58;10.13;;;2.92;;
19205;SDS011;59358;52.134;5.596;2023-03-23T11:33:30;11.65;;;2.80;;
19205;SDS011;59358;52.134;5.596;2023-03-23T11:36:02;14.38;;;3.10;;
19205;SDS011;59358;52.134;5.596;2023-03-23T11:38:29;8.18;;;2.83;;
19205;SDS011;59358;52.134;5.596;2023-03-23T11:40:56;12.07;;;3.28;;
19205;SDS011;59358;52.134;5.596;2023-03-23T11:43:26;13.55;;;3.00;;
19205;SDS011;59358;52.134;5.596;2023-03-23T11:45:56;10.82;;;2.83;;
19205;SDS011;59358;52.134;5.596;2023-03-23T11:48:32;11.00;;;2.63;;
19205;SDS011;59358;52.134;5.596;2023-03-23T11:51:02;11.18;;;3.00;;
19205;SDS011;59358;52.134;5.596;2023-03-23T11:53:39;11.23;;;2.78;;
19205;SDS011;59358;52.134;5.596;2023-03-23T11:56:15;14.27;;;2.75;;
19205;SDS011;59358;52.134;5.596;2023-03-23T11:58:51;13.30;;;2.92;;
19205;SDS011;59358;52.134;5.596;2023-03-23T12:01:23;11.00;;;2.63;;
19205;SDS011;59358;52.134;5.596;2023-03-23T12:04:00;11.98;;;2.38;;
19205;SDS011;59358;52.134;5.596;2023-03-23T12:06:46;11.95;;;3.20;;
19205;SDS011;59358;52.134;5.596;2023-03-23T12:09:24;13.55;;;2.53;;
19205;SDS011;59358;52.134;5.596;2023-03-23T12:12:04;11.40;;;2.95;;
19205;SDS011;59358;52.134;5.596;2023-03-23T12:14:41;13.35;;;3.80;;
19205;SDS011;59358;52.134;5.596;2023-03-23T12:17:17;20.00;;;3.42;;
19205;SDS011;59358;52.134;5.596;2023-03-23T12:19:56;18.08;;;3.75;;
19205;SDS011;59358;52.134;5.596;2023-03-23T12:22:38;10.90;;;3.72;;
19205;SDS011;59358;52.134;5.596;2023-03-23T12:25:30;14.07;;;3.90;;
19205;SDS011;59358;52.134;5.596;2023-03-23T12:28:11;11.88;;;3.45;;
19205;SDS011;59358;52.134;5.596;2023-03-23T12:30:49;13.38;;;3.25;;
19205;SDS011;59358;52.134;5.596;2023-03-23T12:33:24;16.05;;;4.22;;
19205;SDS011;59358;52.134;5.596;2023-03-23T12:36:03;15.60;;;3.85;;
19205;SDS011;59358;52.134;5.596;2023-03-23T12:38:44;12.70;;;3.50;;
19205;SDS011;59358;52.134;5.596;2023-03-23T12:41:23;12.48;;;3.47;;
19205;SDS011;59358;52.134;5.596;2023-03-23T12:43:57;11.82;;;3.65;;
19205;SDS011;59358;52.134;5.596;2023-03-23T12:46:37;8.93;;;2.90;;
19205;SDS011;59358;52.134;5.596;2023-03-23T12:49:20;11.13;;;3.15;;
19205;SDS011;59358;52.134;5.596;2023-03-23T12:51:53;16.52;;;3.70;;
19205;SDS011;59358;52.134;5.596;2023-03-23T12:54:26;8.07;;;3.00;;
19205;SDS011;59358;52.134;5.596;2023-03-23T12:56:59;10.48;;;2.85;;
19205;SDS011;59358;52.134;5.596;2023-03-23T12:59:37;11.13;;;2.88;;
19205;SDS011;59358;52.134;5.596;2023-03-23T13:02:12;11.70;;;3.00;;
19205;SDS011;59358;52.134;5.596;2023-03-23T13:04:57;7.75;;;2.47;;
19205;SDS011;59358;52.134;5.596;2023-03-23T13:07:29;8.32;;;2.55;;
19205;SDS011;59358;52.134;5.596;2023-03-23T13:10:02;9.40;;;2.83;;
19205;SDS011;59358;52.134;5.596;2023-03-23T13:12:31;9.65;;;2.85;;
19205;SDS011;59358;52.134;5.596;2023-03-23T13:15:06;6.43;;;1.90;;
19205;SDS011;59358;52.134;5.596;2023-03-23T13:17:44;8.88;;;2.20;;
19205;SDS011;59358;52.134;5.596;2023-03-23T13:23:08;8.95;;;2.40;;
19205;SDS011;59358;52.134;5.596;2023-03-23T13:25:43;10.93;;;2.92;;
19205;SDS011;59358;52.134;5.596;2023-03-23T13:28:17;4.90;;;2.17;;
19205;SDS011;59358;52.134;5.596;2023-03-23T13:30:54;7.85;;;2.25;;
19205;SDS011;59358;52.134;5.596;2023-03-23T13:33:39;11.18;;;2.88;;
19205;SDS011;59358;52.134;5.596;2023-03-23T13:36:11;4.68;;;1.70;;
19205;SDS011;59358;52.134;5.596;2023-03-23T13:38:44;10.30;;;2.47;;
19205;SDS011;59358;52.134;5.596;2023-03-23T13:41:14;8.93;;;2.47;;
19205;SDS011;59358;52.134;5.596;2023-03-23T13:43:46;5.93;;;2.15;;
19205;SDS011;59358;52.134;5.596;2023-03-23T13:46:24;7.82;;;2.20;;
19205;SDS011;59358;52.134;5.596;2023-03-23T13:49:14;5.40;;;2.20;;
19205;SDS011;59358;52.134;5.596;2023-03-23T13:51:51;7.50;;;2.70;;
19205;SDS011;59358;52.134;5.596;2023-03-23T13:54:25;8.25;;;3.10;;
19205;SDS011;59358;52.134;5.596;2023-03-23T13:56:58;8.35;;;2.20;;
19205;SDS011;59358;52.134;5.596;2023-03-23T13:59:29;11.02;;;2.47;;
19205;SDS011;59358;52.134;5.596;2023-03-23T14:05:07;8.68;;;2.55;;
19205;SDS011;59358;52.134;5.596;2023-03-23T14:07:52;12.60;;;2.53;;
19205;SDS011;59358;52.134;5.596;2023-03-23T14:10:20;9.43;;;2.25;;
19205;SDS011;59358;52.134;5.596;2023-03-23T14:12:48;14.07;;;3.55;;
19205;SDS011;59358;52.134;5.596;2023-03-23T14:15:18;12.02;;;3.20;;
19205;SDS011;59358;52.134;5.596;2023-03-23T14:17:45;7.30;;;2.75;;
19205;SDS011;59358;52.134;5.596;2023-03-23T14:20:19;12.93;;;3.58;;
19205;SDS011;59358;52.134;5.596;2023-03-23T14:22:52;7.97;;;2.85;;
19205;SDS011;59358;52.134;5.596;2023-03-23T14:25:21;10.70;;;3.05;;
19205;SDS011;59358;52.134;5.596;2023-03-23T14:27:50;11.90;;;2.80;;
19205;SDS011;59358;52.134;5.596;2023-03-23T14:30:18;9.23;;;2.55;;
19205;SDS011;59358;52.134;5.596;2023-03-23T14:32:46;10.18;;;2.63;;
19205;SDS011;59358;52.134;5.596;2023-03-23T14:35:23;6.72;;;2.55;;
19205;SDS011;59358;52.134;5.596;2023-03-23T14:37:55;7.78;;;3.03;;
19205;SDS011;59358;52.134;5.596;2023-03-23T14:40:25;8.25;;;2.55;;
19205;SDS011;59358;52.134;5.596;2023-03-23T14:42:53;9.98;;;2.85;;
19205;SDS011;59358;52.134;5.596;2023-03-23T14:45:22;7.00;;;2.45;;
19205;SDS011;59358;52.134;5.596;2023-03-23T14:47:50;7.65;;;2.55;;
19205;SDS011;59358;52.134;5.596;2023-03-23T14:50:22;8.15;;;2.25;;
19205;SDS011;59358;52.134;5.596;2023-03-23T14:52:55;9.98;;;3.00;;
19205;SDS011;59358;52.134;5.596;2023-03-23T14:55:30;5.07;;;2.22;;
19205;SDS011;59358;52.134;5.596;2023-03-23T14:58:05;8.20;;;2.78;;
19205;SDS011;59358;52.134;5.596;2023-03-23T15:00:34;9.63;;;2.50;;
19205;SDS011;59358;52.134;5.596;2023-03-23T15:03:05;8.45;;;3.05;;
19205;SDS011;59358;52.134;5.596;2023-03-23T15:05:36;8.43;;;2.97;;
19205;SDS011;59358;52.134;5.596;2023-03-23T15:08:11;11.15;;;2.67;;
19205;SDS011;59358;52.134;5.596;2023-03-23T15:10:40;6.47;;;2.72;;